createdAt,value
2019-06-01T00:04:23.801Z,80.4
2019-06-01T00:09:23.785Z,79.9
2019-06-01T00:14:23.869Z,81.0
2019-06-01T00:19:23.781Z,82.4
2019-06-01T00:24:23.971Z,82.5
2019-06-01T00:29:23.867Z,82.3
2019-06-01T00:34:23.774Z,82.7
2019-06-01T00:39:23.759Z,82.9
2019-06-01T00:44:23.762Z,82.4
2019-06-01T00:49:23.753Z,82.7
2019-06-01T00:54:23.759Z,81.6
2019-06-01T00:59:23.746Z,81.0
2019-06-01T01:04:23.825Z,80.8
2019-06-01T01:09:23.722Z,81.6
2019-06-01T01:14:23.856Z,81.1
2019-06-01T01:19:23.742Z,80.5
2019-06-01T01:24:23.720Z,81.2
2019-06-01T01:29:23.754Z,81.8
2019-06-01T01:34:23.726Z,81.9
2019-06-01T01:39:23.718Z,82.7
2019-06-01T01:44:23.713Z,82.9
2019-06-01T01:49:23.757Z,82.2
2019-06-01T01:54:23.700Z,82.0
2019-06-01T01:59:23.683Z,83.3
2019-06-01T02:04:23.684Z,82.8
2019-06-01T02:09:23.670Z,82.3
2019-06-01T02:14:23.749Z,83.7
2019-06-01T02:19:23.656Z,83.1
2019-06-01T02:24:23.671Z,83.2
2019-06-01T02:29:23.654Z,83.0
2019-06-01T02:34:23.655Z,83.2
2019-06-01T02:39:23.678Z,83.5
2019-06-01T02:44:23.633Z,83.2
2019-06-01T02:49:23.860Z,83.2
2019-06-01T02:54:24.091Z,83.0
2019-06-01T02:59:23.699Z,82.7
2019-06-01T03:04:23.636Z,82.9
2019-06-01T03:09:23.678Z,82.9
2019-06-01T03:14:23.610Z,83.2
2019-06-01T03:19:23.602Z,83.8
2019-06-01T03:24:23.713Z,82.9
2019-06-01T03:29:23.615Z,82.4
2019-06-01T03:34:23.632Z,81.8
2019-06-01T03:39:23.600Z,81.8
2019-06-01T03:44:23.594Z,83.4
2019-06-01T03:49:23.666Z,83.9
2019-06-01T03:54:23.583Z,83.4
2019-06-01T03:59:23.671Z,83.9
2019-06-01T04:04:23.572Z,84.4
2019-06-01T04:09:23.560Z,84.8
2019-06-01T04:14:23.550Z,84.0
2019-06-01T04:19:23.547Z,85.4
2019-06-01T04:24:23.551Z,86.6
2019-06-01T04:29:23.530Z,86.5
2019-06-01T04:34:23.548Z,85.6
2019-06-01T04:39:23.523Z,85.4
2019-06-01T04:44:23.598Z,85.2
2019-06-01T04:49:23.546Z,85.2
2019-06-01T04:54:23.548Z,84.9
2019-06-01T04:59:23.532Z,84.8
2019-06-01T05:04:23.579Z,84.7
2019-06-01T05:09:23.489Z,84.2
2019-06-01T05:14:23.489Z,83.9
2019-06-01T05:19:23.484Z,83.3
2019-06-01T05:24:23.589Z,86.6
2019-06-01T05:29:23.485Z,86.3
2019-06-01T05:34:23.459Z,85.5
2019-06-01T05:39:23.548Z,84.4
2019-06-01T05:44:23.463Z,83.9
2019-06-01T05:49:23.452Z,81.7
2019-06-01T05:54:23.457Z,81.4
2019-06-01T06:04:23.437Z,81.1
2019-06-01T06:09:23.471Z,82.7
2019-06-01T06:14:23.445Z,79.5
2019-06-01T06:19:23.514Z,80.4
2019-06-01T06:24:23.449Z,78.8
2019-06-01T06:29:23.489Z,78.5
2019-06-01T06:34:23.453Z,77.1
2019-06-01T06:39:23.445Z,77.6
2019-06-01T06:44:23.414Z,76.1
2019-06-01T06:49:23.393Z,78.9
2019-06-01T06:54:23.462Z,78.8
2019-06-01T06:59:23.381Z,78.8
2019-06-01T07:04:23.397Z,79.8
2019-06-01T07:09:27.514Z,78.3
2019-06-01T07:14:23.379Z,77.5
2019-06-01T07:19:23.376Z,76.7
2019-06-01T07:24:23.413Z,75.2
2019-06-01T07:29:23.361Z,76.3
2019-06-01T07:34:23.358Z,75.3
2019-06-01T07:39:23.430Z,72.2
2019-06-01T07:44:23.336Z,72.8
2019-06-01T07:49:23.330Z,73.0
2019-06-01T07:54:23.517Z,69.0
2019-06-01T07:59:23.321Z,72.1
2019-06-01T08:04:23.320Z,70.2
2019-06-01T08:09:23.309Z,69.7
2019-06-01T08:14:23.390Z,71.0
2019-06-01T08:19:23.305Z,70.8
2019-06-01T08:24:23.337Z,71.9
2019-06-01T08:29:23.285Z,67.9
2019-06-01T08:34:23.270Z,69.3
2019-06-01T08:39:23.290Z,63.9
2019-06-01T08:44:23.273Z,64.8
2019-06-01T08:49:23.281Z,67.8
2019-06-01T08:54:23.303Z,66.9
2019-06-01T08:59:23.281Z,66.8
2019-06-01T09:04:27.507Z,63.3
2019-06-01T09:09:23.264Z,60.7
2019-06-01T09:14:23.248Z,60.4
2019-06-01T09:19:23.322Z,57.2
2019-06-01T09:24:25.601Z,58.8
2019-06-01T09:29:23.213Z,59.1
2019-06-01T09:34:23.399Z,58.4
2019-06-01T09:39:23.187Z,52.1
2019-06-01T09:44:23.190Z,52.1
2019-06-01T09:49:23.186Z,53.4
2019-06-01T09:54:23.225Z,55.4
2019-06-01T09:59:23.262Z,54.1
2019-06-01T10:04:23.168Z,50.8
2019-06-01T10:09:23.176Z,53.1
2019-06-01T10:14:23.187Z,51.3
2019-06-01T10:24:23.224Z,49.5
2019-06-01T10:29:23.238Z,47.9
2019-06-01T10:34:23.210Z,48.8
2019-06-01T10:39:23.146Z,49.5
2019-06-01T10:44:23.148Z,47.3
2019-06-01T10:54:23.115Z,49.2
2019-06-01T10:59:23.182Z,48.8
2019-06-01T11:04:23.095Z,52.7
2019-06-01T11:14:23.095Z,44.3
2019-06-01T11:29:23.193Z,44.4
2019-06-01T11:44:23.058Z,43.4
2019-06-01T11:49:23.034Z,47.3
2019-06-01T11:59:23.035Z,44.7
2019-06-01T12:04:23.028Z,45.8
2019-06-01T12:09:23.028Z,46.1
2019-06-01T12:24:23.009Z,44.4
2019-06-01T12:29:22.984Z,43.6
2019-06-01T12:34:23.076Z,48.6
2019-06-01T12:39:22.991Z,43.5
2019-06-01T12:54:22.973Z,41.8
2019-06-01T12:59:22.970Z,45.9
2019-06-01T13:04:22.953Z,42.4
2019-06-01T13:14:22.961Z,39.5
2019-06-01T13:19:22.988Z,39.5
2019-06-01T13:29:22.921Z,40.1
2019-06-01T13:44:22.990Z,43.8
2019-06-01T13:49:22.904Z,41.0
2019-06-01T13:54:22.908Z,44.4
2019-06-01T14:09:22.889Z,42.9
2019-06-01T14:24:23.005Z,42.9
2019-06-01T14:34:22.894Z,42.5
2019-06-01T14:39:22.927Z,38.8
2019-06-01T14:59:22.813Z,41.0
2019-06-01T15:04:22.804Z,40.2
2019-06-01T15:19:22.838Z,41.7
2019-06-01T15:24:22.886Z,40.4
2019-06-01T15:29:22.778Z,41.1
2019-06-01T15:34:22.764Z,42.2
2019-06-01T15:44:22.776Z,43.4
2019-06-01T15:49:22.758Z,43.0
2019-06-01T15:54:22.811Z,40.1
2019-06-01T15:59:22.735Z,39.3
2019-06-01T16:04:22.736Z,40.5
2019-06-01T16:09:22.782Z,41.1
2019-06-01T16:14:22.809Z,42.6
2019-06-01T16:19:22.762Z,40.1
2019-06-01T16:24:22.709Z,40.7
2019-06-01T16:29:22.703Z,40.5
2019-06-01T16:34:22.706Z,40.4
2019-06-01T16:39:22.701Z,41.9
2019-06-01T16:44:22.789Z,39.5
2019-06-01T16:49:22.781Z,38.1
2019-06-01T16:54:22.773Z,38.8
2019-06-01T16:59:22.687Z,40.3
2019-06-01T17:04:22.752Z,42.1
2019-06-01T17:09:22.654Z,42.7
2019-06-01T17:14:22.651Z,44.5
2019-06-01T17:19:22.652Z,42.9
2019-06-01T17:24:22.643Z,42.5
2019-06-01T17:29:22.760Z,44.4
2019-06-01T17:34:22.714Z,45.6
2019-06-01T17:39:22.634Z,47.5
2019-06-01T17:44:22.618Z,49.1
2019-06-01T17:49:22.762Z,46.5
2019-06-01T17:54:22.659Z,47.0
2019-06-01T17:59:22.614Z,47.4
2019-06-01T18:04:22.596Z,48.3
2019-06-01T18:09:22.721Z,49.2
2019-06-01T18:14:22.575Z,49.6
2019-06-01T18:19:22.599Z,48.4
2019-06-01T18:24:22.626Z,51.1
2019-06-01T18:29:22.581Z,51.2
2019-06-01T18:34:22.637Z,51.1
2019-06-01T18:39:22.568Z,50.3
2019-06-01T18:44:22.619Z,53.7
2019-06-01T18:49:22.716Z,54.0
2019-06-01T18:54:22.590Z,54.3
2019-06-01T18:59:22.522Z,53.9
2019-06-01T19:04:22.512Z,53.7
2019-06-01T19:09:22.509Z,54.1
2019-06-01T19:14:22.670Z,54.3
2019-06-01T19:19:22.554Z,56.1
2019-06-01T19:24:22.581Z,56.4
2019-06-01T19:29:22.506Z,57.5
2019-06-01T19:34:22.491Z,57.8
2019-06-01T19:39:22.487Z,57.6
2019-06-01T19:44:22.544Z,57.5
2019-06-01T19:49:22.595Z,56.5
2019-06-01T19:54:22.643Z,56.4
2019-06-01T19:59:22.538Z,56.3
2019-06-01T20:04:22.611Z,56.1
2019-06-01T20:09:22.459Z,57.0
2019-06-01T20:14:22.454Z,59.0
2019-06-01T20:19:22.569Z,58.6
2019-06-01T20:24:22.709Z,59.3
2019-06-01T20:29:22.687Z,59.0
2019-06-01T20:34:22.522Z,60.4
2019-06-01T20:39:22.484Z,59.4
2019-06-01T20:44:22.516Z,59.7
2019-06-01T20:49:22.488Z,60.3
2019-06-01T20:54:22.422Z,58.7
2019-06-01T20:59:22.502Z,62.3
2019-06-01T21:04:22.406Z,62.9
2019-06-01T21:09:22.454Z,62.3
2019-06-01T21:14:22.460Z,62.8
2019-06-01T21:19:22.494Z,62.8
2019-06-01T21:24:22.428Z,64.4
2019-06-01T21:29:22.439Z,64.1
2019-06-01T21:34:22.401Z,66.5
2019-06-01T21:39:22.374Z,64.9
2019-06-01T21:44:22.379Z,63.7
2019-06-01T21:49:22.364Z,64.7
2019-06-01T21:54:22.364Z,64.7
2019-06-01T21:59:22.433Z,70.7
2019-06-01T22:04:22.394Z,70.2
2019-06-01T22:09:22.351Z,70.1
2019-06-01T22:14:22.360Z,68.1
2019-06-01T22:19:22.392Z,66.5
2019-06-01T22:24:22.358Z,66.1
2019-06-01T22:29:22.333Z,66.6
2019-06-01T22:34:22.405Z,67.1
2019-06-01T22:39:22.346Z,67.6
2019-06-01T22:44:22.380Z,67.5
2019-06-01T22:49:22.296Z,68.8
2019-06-01T22:54:22.442Z,67.6
2019-06-01T22:59:22.313Z,69.3
2019-06-01T23:04:22.377Z,70.0
2019-06-01T23:09:22.419Z,72.1
2019-06-01T23:14:22.299Z,73.0
2019-06-01T23:19:22.258Z,71.0
2019-06-01T23:24:22.321Z,71.1
2019-06-01T23:29:22.286Z,71.3
2019-06-01T23:34:22.259Z,71.7
2019-06-01T23:39:22.319Z,74.6
2019-06-01T23:44:22.232Z,74.9
2019-06-01T23:49:22.336Z,72.3
2019-06-01T23:54:22.831Z,77.0
2019-06-01T23:59:22.208Z,76.5
